sensor_id;sensor_type;location;lat;lon;timestamp;temperature;humidity
8979;DHT22;4524;51.364;5.448;2022-11-25T00:01:04;10.70;1.00
8979;DHT22;4524;51.364;5.448;2022-11-25T00:03:32;10.70;1.00
8979;DHT22;4524;51.364;5.448;2022-11-25T00:06:10;10.60;1.00
8979;DHT22;4524;51.364;5.448;2022-11-25T00:08:38;10.60;1.00
8979;DHT22;4524;51.364;5.448;2022-11-25T00:11:08;10.60;1.00
8979;DHT22;4524;51.364;5.448;2022-11-25T00:13:37;10.70;1.00
8979;DHT22;4524;51.364;5.448;2022-11-25T00:16:07;10.70;1.00
8979;DHT22;4524;51.364;5.448;2022-11-25T00:18:35;10.70;1.00
8979;DHT22;4524;51.364;5.448;2022-11-25T00:21:05;10.70;1.00
8979;DHT22;4524;51.364;5.448;2022-11-25T00:23:34;10.60;1.00
8979;DHT22;4524;51.364;5.448;2022-11-25T00:26:08;10.60;1.00
8979;DHT22;4524;51.364;5.448;2022-11-25T00:28:36;10.70;1.00
8979;DHT22;4524;51.364;5.448;2022-11-25T00:31:06;10.70;1.00
8979;DHT22;4524;51.364;5.448;2022-11-25T00:33:34;10.70;1.00
8979;DHT22;4524;51.364;5.448;2022-11-25T00:36:02;10.70;1.00
8979;DHT22;4524;51.364;5.448;2022-11-25T00:38:30;10.70;1.00
8979;DHT22;4524;51.364;5.448;2022-11-25T00:40:58;10.70;1.00
8979;DHT22;4524;51.364;5.448;2022-11-25T00:43:46;10.70;1.00
8979;DHT22;4524;51.364;5.448;2022-11-25T00:46:31;10.70;1.00
8979;DHT22;4524;51.364;5.448;2022-11-25T00:48:59;10.70;1.00
8979;DHT22;4524;51.364;5.448;2022-11-25T00:51:27;10.70;1.00
8979;DHT22;4524;51.364;5.448;2022-11-25T00:53:54;10.70;1.00
8979;DHT22;4524;51.364;5.448;2022-11-25T00:56:25;10.70;1.00
8979;DHT22;4524;51.364;5.448;2022-11-25T00:58:54;10.70;1.00
8979;DHT22;4524;51.364;5.448;2022-11-25T01:01:23;10.80;1.00
8979;DHT22;4524;51.364;5.448;2022-11-25T01:03:52;10.80;1.00
8979;DHT22;4524;51.364;5.448;2022-11-25T01:06:20;10.80;1.00
8979;DHT22;4524;51.364;5.448;2022-11-25T01:08:48;10.70;1.00
8979;DHT22;4524;51.364;5.448;2022-11-25T01:11:19;10.80;1.00
8979;DHT22;4524;51.364;5.448;2022-11-25T01:13:47;10.80;1.00
8979;DHT22;4524;51.364;5.448;2022-11-25T01:16:19;10.80;1.00
8979;DHT22;4524;51.364;5.448;2022-11-25T01:18:47;10.80;1.00
8979;DHT22;4524;51.364;5.448;2022-11-25T01:21:19;10.80;1.00
8979;DHT22;4524;51.364;5.448;2022-11-25T01:23:47;10.80;1.00
8979;DHT22;4524;51.364;5.448;2022-11-25T01:26:17;10.80;1.00
8979;DHT22;4524;51.364;5.448;2022-11-25T01:28:45;10.70;1.00
8979;DHT22;4524;51.364;5.448;2022-11-25T01:31:17;10.70;1.00
8979;DHT22;4524;51.364;5.448;2022-11-25T01:33:46;10.70;1.00
8979;DHT22;4524;51.364;5.448;2022-11-25T01:36:16;10.80;1.00
8979;DHT22;4524;51.364;5.448;2022-11-25T01:38:47;10.80;1.00
8979;DHT22;4524;51.364;5.448;2022-11-25T01:41:16;10.80;1.00
8979;DHT22;4524;51.364;5.448;2022-11-25T01:44:06;10.80;1.00
8979;DHT22;4524;51.364;5.448;2022-11-25T01:46:45;10.90;1.00
8979;DHT22;4524;51.364;5.448;2022-11-25T01:49:17;10.90;1.00
8979;DHT22;4524;51.364;5.448;2022-11-25T01:51:49;11.00;1.00
8979;DHT22;4524;51.364;5.448;2022-11-25T01:54:22;11.00;1.00
8979;DHT22;4524;51.364;5.448;2022-11-25T01:56:53;11.00;1.00
8979;DHT22;4524;51.364;5.448;2022-11-25T01:59:23;11.00;1.00
8979;DHT22;4524;51.364;5.448;2022-11-25T02:01:53;11.10;1.00
8979;DHT22;4524;51.364;5.448;2022-11-25T02:04:26;11.10;1.00
8979;DHT22;4524;51.364;5.448;2022-11-25T02:06:59;11.10;1.00
8979;DHT22;4524;51.364;5.448;2022-11-25T02:09:28;11.10;1.00
8979;DHT22;4524;51.364;5.448;2022-11-25T02:11:57;11.10;1.00
8979;DHT22;4524;51.364;5.448;2022-11-25T02:14:25;11.10;1.00
8979;DHT22;4524;51.364;5.448;2022-11-25T02:16:54;11.10;1.00
8979;DHT22;4524;51.364;5.448;2022-11-25T02:19:29;11.00;1.00
8979;DHT22;4524;51.364;5.448;2022-11-25T02:22:02;11.10;1.00
8979;DHT22;4524;51.364;5.448;2022-11-25T02:24:39;11.00;1.00
8979;DHT22;4524;51.364;5.448;2022-11-25T02:27:11;11.00;1.00
8979;DHT22;4524;51.364;5.448;2022-11-25T02:29:42;11.00;1.00
8979;DHT22;4524;51.364;5.448;2022-11-25T02:32:10;11.00;1.00
8979;DHT22;4524;51.364;5.448;2022-11-25T02:34:45;11.00;1.00
8979;DHT22;4524;51.364;5.448;2022-11-25T02:37:14;11.00;1.00
8979;DHT22;4524;51.364;5.448;2022-11-25T02:39:44;11.00;1.00
8979;DHT22;4524;51.364;5.448;2022-11-25T02:42:15;11.00;1.00
8979;DHT22;4524;51.364;5.448;2022-11-25T02:44:46;10.90;1.00
8979;DHT22;4524;51.364;5.448;2022-11-25T02:47:14;10.90;1.00
8979;DHT22;4524;51.364;5.448;2022-11-25T02:49:44;10.90;3.10
8979;DHT22;4524;51.364;5.448;2022-11-25T02:52:12;10.90;23.90
8979;DHT22;4524;51.364;5.448;2022-11-25T02:54:41;10.80;23.50
8979;DHT22;4524;51.364;5.448;2022-11-25T02:57:08;10.80;18.30
8979;DHT22;4524;51.364;5.448;2022-11-25T02:59:38;10.90;26.40
8979;DHT22;4524;51.364;5.448;2022-11-25T03:02:05;10.80;42.90
8979;DHT22;4524;51.364;5.448;2022-11-25T03:04:34;10.80;43.50
8979;DHT22;4524;51.364;5.448;2022-11-25T03:07:02;10.80;84.30
8979;DHT22;4524;51.364;5.448;2022-11-25T03:09:30;10.70;93.10
8979;DHT22;4524;51.364;5.448;2022-11-25T03:11:58;10.60;89.90
8979;DHT22;4524;51.364;5.448;2022-11-25T03:14:45;10.60;91.50
8979;DHT22;4524;51.364;5.448;2022-11-25T03:17:13;10.60;97.00
8979;DHT22;4524;51.364;5.448;2022-11-25T03:19:41;10.60;88.80
8979;DHT22;4524;51.364;5.448;2022-11-25T03:22:10;10.60;90.80
8979;DHT22;4524;51.364;5.448;2022-11-25T03:24:38;10.50;99.90
8979;DHT22;4524;51.364;5.448;2022-11-25T03:27:07;10.50;99.90
8979;DHT22;4524;51.364;5.448;2022-11-25T03:29:35;10.50;99.90
8979;DHT22;4524;51.364;5.448;2022-11-25T03:32:04;10.50;94.00
8979;DHT22;4524;51.364;5.448;2022-11-25T03:34:36;10.40;99.90
8979;DHT22;4524;51.364;5.448;2022-11-25T03:37:04;10.40;99.90
8979;DHT22;4524;51.364;5.448;2022-11-25T03:39:33;10.30;99.90
8979;DHT22;4524;51.364;5.448;2022-11-25T03:42:01;10.30;99.90
8979;DHT22;4524;51.364;5.448;2022-11-25T03:44:30;10.30;99.90
8979;DHT22;4524;51.364;5.448;2022-11-25T03:46:58;10.30;99.90
8979;DHT22;4524;51.364;5.448;2022-11-25T03:49:28;10.20;99.90
8979;DHT22;4524;51.364;5.448;2022-11-25T03:51:56;10.30;99.90
8979;DHT22;4524;51.364;5.448;2022-11-25T03:54:24;10.30;99.90
8979;DHT22;4524;51.364;5.448;2022-11-25T03:57:10;10.30;99.90
8979;DHT22;4524;51.364;5.448;2022-11-25T03:59:38;10.30;99.90
8979;DHT22;4524;51.364;5.448;2022-11-25T04:02:06;10.30;99.90
8979;DHT22;4524;51.364;5.448;2022-11-25T04:04:37;10.20;99.90
8979;DHT22;4524;51.364;5.448;2022-11-25T04:07:04;10.10;99.90
8979;DHT22;4524;51.364;5.448;2022-11-25T04:09:33;10.00;99.90
8979;DHT22;4524;51.364;5.448;2022-11-25T04:12:04;10.10;99.90
8979;DHT22;4524;51.364;5.448;2022-11-25T04:14:57;10.10;99.90
8979;DHT22;4524;51.364;5.448;2022-11-25T04:17:25;10.00;99.90
8979;DHT22;4524;51.364;5.448;2022-11-25T04:19:55;10.10;99.90
8979;DHT22;4524;51.364;5.448;2022-11-25T04:22:23;10.10;99.90
8979;DHT22;4524;51.364;5.448;2022-11-25T04:24:52;10.10;99.90
8979;DHT22;4524;51.364;5.448;2022-11-25T04:27:24;10.00;99.90
8979;DHT22;4524;51.364;5.448;2022-11-25T04:29:52;10.00;99.90
8979;DHT22;4524;51.364;5.448;2022-11-25T04:32:21;9.80;99.90
8979;DHT22;4524;51.364;5.448;2022-11-25T04:34:49;9.80;99.90
8979;DHT22;4524;51.364;5.448;2022-11-25T04:37:18;9.80;99.90
8979;DHT22;4524;51.364;5.448;2022-11-25T04:39:47;9.80;99.90
8979;DHT22;4524;51.364;5.448;2022-11-25T04:42:16;9.80;99.90
8979;DHT22;4524;51.364;5.448;2022-11-25T04:45:04;9.70;99.90
8979;DHT22;4524;51.364;5.448;2022-11-25T04:47:50;9.70;99.90
8979;DHT22;4524;51.364;5.448;2022-11-25T04:50:20;9.50;99.90
8979;DHT22;4524;51.364;5.448;2022-11-25T04:52:56;9.50;99.90
8979;DHT22;4524;51.364;5.448;2022-11-25T04:55:24;9.40;99.90
8979;DHT22;4524;51.364;5.448;2022-11-25T04:57:52;9.30;99.90
8979;DHT22;4524;51.364;5.448;2022-11-25T05:00:20;9.30;99.90
8979;DHT22;4524;51.364;5.448;2022-11-25T05:02:48;9.20;99.90
8979;DHT22;4524;51.364;5.448;2022-11-25T05:05:19;9.20;99.90
8979;DHT22;4524;51.364;5.448;2022-11-25T05:07:48;9.10;99.90
8979;DHT22;4524;51.364;5.448;2022-11-25T05:10:19;9.10;99.90
8979;DHT22;4524;51.364;5.448;2022-11-25T05:12:49;9.10;99.90
8979;DHT22;4524;51.364;5.448;2022-11-25T05:15:20;9.20;99.90
8979;DHT22;4524;51.364;5.448;2022-11-25T05:17:48;9.30;99.90
8979;DHT22;4524;51.364;5.448;2022-11-25T05:20:24;9.40;99.90
8979;DHT22;4524;51.364;5.448;2022-11-25T05:22:52;9.30;99.90
8979;DHT22;4524;51.364;5.448;2022-11-25T05:25:22;9.30;99.90
8979;DHT22;4524;51.364;5.448;2022-11-25T05:28:12;9.20;99.90
8979;DHT22;4524;51.364;5.448;2022-11-25T05:30:40;9.10;99.90
8979;DHT22;4524;51.364;5.448;2022-11-25T05:33:10;9.00;99.90
8979;DHT22;4524;51.364;5.448;2022-11-25T05:35:38;9.00;99.90
8979;DHT22;4524;51.364;5.448;2022-11-25T05:38:06;8.90;99.90
8979;DHT22;4524;51.364;5.448;2022-11-25T05:40:37;8.90;99.90
8979;DHT22;4524;51.364;5.448;2022-11-25T05:43:10;8.90;99.90
8979;DHT22;4524;51.364;5.448;2022-11-25T05:45:39;8.80;99.90
8979;DHT22;4524;51.364;5.448;2022-11-25T05:48:09;8.80;99.90
8979;DHT22;4524;51.364;5.448;2022-11-25T05:50:37;8.80;99.90
8979;DHT22;4524;51.364;5.448;2022-11-25T05:53:15;8.70;99.90
8979;DHT22;4524;51.364;5.448;2022-11-25T05:55:54;8.70;99.90
8979;DHT22;4524;51.364;5.448;2022-11-25T05:58:49;8.70;99.90
8979;DHT22;4524;51.364;5.448;2022-11-25T06:01:17;8.70;1.00
8979;DHT22;4524;51.364;5.448;2022-11-25T06:03:46;8.70;1.00
8979;DHT22;4524;51.364;5.448;2022-11-25T06:06:15;8.70;1.00
8979;DHT22;4524;51.364;5.448;2022-11-25T06:08:43;8.60;1.00
8979;DHT22;4524;51.364;5.448;2022-11-25T06:11:15;8.60;1.00
8979;DHT22;4524;51.364;5.448;2022-11-25T06:13:44;8.60;1.00
8979;DHT22;4524;51.364;5.448;2022-11-25T06:16:14;8.60;1.00
8979;DHT22;4524;51.364;5.448;2022-11-25T06:18:44;8.60;1.00
8979;DHT22;4524;51.364;5.448;2022-11-25T06:21:13;8.60;1.00
8979;DHT22;4524;51.364;5.448;2022-11-25T06:23:41;8.60;1.00
8979;DHT22;4524;51.364;5.448;2022-11-25T06:26:16;8.60;1.00
8979;DHT22;4524;51.364;5.448;2022-11-25T06:28:45;8.50;1.00
8979;DHT22;4524;51.364;5.448;2022-11-25T06:31:15;8.60;1.00
8979;DHT22;4524;51.364;5.448;2022-11-25T06:33:53;8.50;99.90
8979;DHT22;4524;51.364;5.448;2022-11-25T06:36:22;8.50;1.00
8979;DHT22;4524;51.364;5.448;2022-11-25T06:38:51;8.50;1.00
8979;DHT22;4524;51.364;5.448;2022-11-25T06:41:22;8.50;99.90
8979;DHT22;4524;51.364;5.448;2022-11-25T06:43:50;8.40;1.00
8979;DHT22;4524;51.364;5.448;2022-11-25T06:46:19;8.40;1.00
8979;DHT22;4524;51.364;5.448;2022-11-25T06:48:51;8.40;1.00
8979;DHT22;4524;51.364;5.448;2022-11-25T06:51:19;8.40;99.90
8979;DHT22;4524;51.364;5.448;2022-11-25T06:53:47;8.40;1.00
8979;DHT22;4524;51.364;5.448;2022-11-25T06:56:17;8.40;99.90
8979;DHT22;4524;51.364;5.448;2022-11-25T06:58:47;8.30;99.90
8979;DHT22;4524;51.364;5.448;2022-11-25T07:01:17;8.30;99.90
8979;DHT22;4524;51.364;5.448;2022-11-25T07:03:47;8.30;1.00
8979;DHT22;4524;51.364;5.448;2022-11-25T07:06:16;8.30;99.90
8979;DHT22;4524;51.364;5.448;2022-11-25T07:08:45;8.30;99.90
8979;DHT22;4524;51.364;5.448;2022-11-25T07:11:16;8.20;99.90
8979;DHT22;4524;51.364;5.448;2022-11-25T07:13:44;8.20;99.90
8979;DHT22;4524;51.364;5.448;2022-11-25T07:16:14;8.20;99.90
8979;DHT22;4524;51.364;5.448;2022-11-25T07:18:42;8.20;99.90
8979;DHT22;4524;51.364;5.448;2022-11-25T07:21:12;8.20;99.90
8979;DHT22;4524;51.364;5.448;2022-11-25T07:23:41;8.20;99.90
8979;DHT22;4524;51.364;5.448;2022-11-25T07:26:11;8.20;99.90
8979;DHT22;4524;51.364;5.448;2022-11-25T07:28:39;8.20;99.90
8979;DHT22;4524;51.364;5.448;2022-11-25T07:31:09;8.10;99.90
8979;DHT22;4524;51.364;5.448;2022-11-25T07:34:02;8.20;99.90
8979;DHT22;4524;51.364;5.448;2022-11-25T07:36:32;8.20;99.90
8979;DHT22;4524;51.364;5.448;2022-11-25T07:39:02;8.20;99.90
8979;DHT22;4524;51.364;5.448;2022-11-25T07:41:31;8.10;99.90
8979;DHT22;4524;51.364;5.448;2022-11-25T07:44:00;8.10;99.90
8979;DHT22;4524;51.364;5.448;2022-11-25T07:46:32;8.10;99.90
8979;DHT22;4524;51.364;5.448;2022-11-25T07:49:05;8.20;99.90
8979;DHT22;4524;51.364;5.448;2022-11-25T07:51:34;8.20;99.90
8979;DHT22;4524;51.364;5.448;2022-11-25T07:54:05;8.20;99.90
8979;DHT22;4524;51.364;5.448;2022-11-25T07:56:34;8.20;99.90
8979;DHT22;4524;51.364;5.448;2022-11-25T07:59:03;8.20;99.90
8979;DHT22;4524;51.364;5.448;2022-11-25T08:01:31;8.20;99.90
8979;DHT22;4524;51.364;5.448;2022-11-25T08:03:59;8.30;99.90
8979;DHT22;4524;51.364;5.448;2022-11-25T08:06:28;8.30;99.90
8979;DHT22;4524;51.364;5.448;2022-11-25T08:08:57;8.40;99.90
8979;DHT22;4524;51.364;5.448;2022-11-25T08:11:27;8.40;99.90
8979;DHT22;4524;51.364;5.448;2022-11-25T08:13:56;8.50;99.90
8979;DHT22;4524;51.364;5.448;2022-11-25T08:16:26;8.50;99.90
8979;DHT22;4524;51.364;5.448;2022-11-25T08:18:55;8.60;99.90
8979;DHT22;4524;51.364;5.448;2022-11-25T08:21:24;8.60;99.90
8979;DHT22;4524;51.364;5.448;2022-11-25T08:23:54;8.60;99.90
8979;DHT22;4524;51.364;5.448;2022-11-25T08:26:24;8.70;99.90
8979;DHT22;4524;51.364;5.448;2022-11-25T08:28:52;8.70;99.90
8979;DHT22;4524;51.364;5.448;2022-11-25T08:31:22;8.80;99.90
8979;DHT22;4524;51.364;5.448;2022-11-25T08:33:51;8.80;99.90
8979;DHT22;4524;51.364;5.448;2022-11-25T08:36:19;8.90;99.90
8979;DHT22;4524;51.364;5.448;2022-11-25T08:38:49;8.90;99.90
8979;DHT22;4524;51.364;5.448;2022-11-25T08:41:20;9.00;99.90
8979;DHT22;4524;51.364;5.448;2022-11-25T08:43:50;9.10;99.90
8979;DHT22;4524;51.364;5.448;2022-11-25T08:46:20;9.10;99.90
8979;DHT22;4524;51.364;5.448;2022-11-25T08:48:48;9.20;99.90
8979;DHT22;4524;51.364;5.448;2022-11-25T08:51:18;9.20;99.90
8979;DHT22;4524;51.364;5.448;2022-11-25T08:53:47;9.30;99.90
8979;DHT22;4524;51.364;5.448;2022-11-25T08:56:19;9.30;99.90
8979;DHT22;4524;51.364;5.448;2022-11-25T08:58:52;9.30;99.90
8979;DHT22;4524;51.364;5.448;2022-11-25T09:01:22;9.40;99.90
8979;DHT22;4524;51.364;5.448;2022-11-25T09:03:52;9.50;99.90
8979;DHT22;4524;51.364;5.448;2022-11-25T09:06:22;9.60;99.90
8979;DHT22;4524;51.364;5.448;2022-11-25T09:08:50;9.60;99.90
8979;DHT22;4524;51.364;5.448;2022-11-25T09:11:19;9.70;99.90
8979;DHT22;4524;51.364;5.448;2022-11-25T09:13:47;9.70;99.90
8979;DHT22;4524;51.364;5.448;2022-11-25T09:16:15;9.70;99.90
8979;DHT22;4524;51.364;5.448;2022-11-25T09:18:43;9.80;99.90
8979;DHT22;4524;51.364;5.448;2022-11-25T09:21:13;9.90;99.90
8979;DHT22;4524;51.364;5.448;2022-11-25T09:23:41;9.90;99.90
8979;DHT22;4524;51.364;5.448;2022-11-25T09:26:20;10.00;99.90
8979;DHT22;4524;51.364;5.448;2022-11-25T09:28:48;10.00;99.90
8979;DHT22;4524;51.364;5.448;2022-11-25T09:31:17;10.00;99.90
8979;DHT22;4524;51.364;5.448;2022-11-25T09:33:46;10.00;99.90
8979;DHT22;4524;51.364;5.448;2022-11-25T09:36:15;10.10;99.90
8979;DHT22;4524;51.364;5.448;2022-11-25T09:38:44;10.10;99.90
8979;DHT22;4524;51.364;5.448;2022-11-25T09:41:23;10.20;99.90
8979;DHT22;4524;51.364;5.448;2022-11-25T09:44:17;10.30;99.90
8979;DHT22;4524;51.364;5.448;2022-11-25T09:47:10;10.30;99.90
8979;DHT22;4524;51.364;5.448;2022-11-25T09:49:53;10.40;99.90
8979;DHT22;4524;51.364;5.448;2022-11-25T09:52:32;10.40;99.90
8979;DHT22;4524;51.364;5.448;2022-11-25T09:55:05;10.40;99.90
8979;DHT22;4524;51.364;5.448;2022-11-25T09:57:48;10.50;99.90
8979;DHT22;4524;51.364;5.448;2022-11-25T10:00:27;10.50;99.90
8979;DHT22;4524;51.364;5.448;2022-11-25T10:03:05;10.50;58.40
8979;DHT22;4524;51.364;5.448;2022-11-25T10:05:38;10.60;29.30
8979;DHT22;4524;51.364;5.448;2022-11-25T10:08:11;10.60;42.00
8979;DHT22;4524;51.364;5.448;2022-11-25T10:10:43;10.60;15.60
8979;DHT22;4524;51.364;5.448;2022-11-25T10:13:17;10.70;22.30
8979;DHT22;4524;51.364;5.448;2022-11-25T10:15:49;10.70;14.80
8979;DHT22;4524;51.364;5.448;2022-11-25T10:18:22;10.80;1.00
8979;DHT22;4524;51.364;5.448;2022-11-25T10:20:53;10.80;1.00
8979;DHT22;4524;51.364;5.448;2022-11-25T10:23:23;10.80;1.00
8979;DHT22;4524;51.364;5.448;2022-11-25T10:25:56;10.90;1.00
8979;DHT22;4524;51.364;5.448;2022-11-25T10:28:31;10.90;1.00
8979;DHT22;4524;51.364;5.448;2022-11-25T10:31:05;10.90;1.00
8979;DHT22;4524;51.364;5.448;2022-11-25T10:33:43;11.00;1.00
8979;DHT22;4524;51.364;5.448;2022-11-25T10:36:15;11.00;1.00
8979;DHT22;4524;51.364;5.448;2022-11-25T10:38:51;11.10;1.00
8979;DHT22;4524;51.364;5.448;2022-11-25T10:41:25;11.20;1.00
8979;DHT22;4524;51.364;5.448;2022-11-25T10:43:54;11.20;1.00
8979;DHT22;4524;51.364;5.448;2022-11-25T10:46:28;11.20;1.00
8979;DHT22;4524;51.364;5.448;2022-11-25T10:49:22;11.20;1.00
8979;DHT22;4524;51.364;5.448;2022-11-25T10:51:54;11.20;1.00
8979;DHT22;4524;51.364;5.448;2022-11-25T10:54:24;11.30;1.00
8979;DHT22;4524;51.364;5.448;2022-11-25T10:57:17;11.20;1.00
8979;DHT22;4524;51.364;5.448;2022-11-25T10:59:56;11.30;1.00
8979;DHT22;4524;51.364;5.448;2022-11-25T11:02:26;11.20;1.00
8979;DHT22;4524;51.364;5.448;2022-11-25T11:04:57;11.30;1.00
8979;DHT22;4524;51.364;5.448;2022-11-25T11:07:27;11.30;1.00
8979;DHT22;4524;51.364;5.448;2022-11-25T11:10:16;11.30;1.00
8979;DHT22;4524;51.364;5.448;2022-11-25T11:12:56;11.40;1.00
8979;DHT22;4524;51.364;5.448;2022-11-25T11:15:27;11.40;1.00
8979;DHT22;4524;51.364;5.448;2022-11-25T11:17:57;11.40;1.00
8979;DHT22;4524;51.364;5.448;2022-11-25T11:20:26;11.40;1.00
8979;DHT22;4524;51.364;5.448;2022-11-25T11:22:56;11.40;1.00
8979;DHT22;4524;51.364;5.448;2022-11-25T11:25:35;11.50;1.00
8979;DHT22;4524;51.364;5.448;2022-11-25T11:28:24;11.50;1.00
8979;DHT22;4524;51.364;5.448;2022-11-25T11:30:56;11.50;1.00
8979;DHT22;4524;51.364;5.448;2022-11-25T11:33:29;11.50;1.00
8979;DHT22;4524;51.364;5.448;2022-11-25T11:36:07;11.50;1.00
8979;DHT22;4524;51.364;5.448;2022-11-25T11:38:45;11.60;1.00
8979;DHT22;4524;51.364;5.448;2022-11-25T11:41:24;11.60;1.00
8979;DHT22;4524;51.364;5.448;2022-11-25T11:44:17;11.60;1.00
8979;DHT22;4524;51.364;5.448;2022-11-25T11:47:00;11.70;99.90
8979;DHT22;4524;51.364;5.448;2022-11-25T11:49:55;11.70;1.00
8979;DHT22;4524;51.364;5.448;2022-11-25T11:52:31;11.70;1.00
8979;DHT22;4524;51.364;5.448;2022-11-25T11:55:28;11.80;1.00
8979;DHT22;4524;51.364;5.448;2022-11-25T11:58:07;11.80;1.00
8979;DHT22;4524;51.364;5.448;2022-11-25T12:00:44;11.80;99.90
8979;DHT22;4524;51.364;5.448;2022-11-25T12:03:18;11.90;99.90
8979;DHT22;4524;51.364;5.448;2022-11-25T12:05:48;11.90;99.90
8979;DHT22;4524;51.364;5.448;2022-11-25T12:08:26;11.90;99.90
8979;DHT22;4524;51.364;5.448;2022-11-25T12:10:59;12.00;99.90
8979;DHT22;4524;51.364;5.448;2022-11-25T12:13:36;12.00;99.90
8979;DHT22;4524;51.364;5.448;2022-11-25T12:16:13;12.10;99.90
8979;DHT22;4524;51.364;5.448;2022-11-25T12:18:48;12.10;99.90
8979;DHT22;4524;51.364;5.448;2022-11-25T12:21:31;12.10;99.90
8979;DHT22;4524;51.364;5.448;2022-11-25T12:24:15;12.20;99.90
8979;DHT22;4524;51.364;5.448;2022-11-25T12:26:48;12.20;99.90
8979;DHT22;4524;51.364;5.448;2022-11-25T12:29:24;12.20;99.90
8979;DHT22;4524;51.364;5.448;2022-11-25T12:32:00;12.20;99.90
8979;DHT22;4524;51.364;5.448;2022-11-25T12:34:36;12.20;99.90
8979;DHT22;4524;51.364;5.448;2022-11-25T12:37:11;12.20;99.90
8979;DHT22;4524;51.364;5.448;2022-11-25T12:39:44;12.20;99.90
8979;DHT22;4524;51.364;5.448;2022-11-25T12:42:21;12.20;99.90
8979;DHT22;4524;51.364;5.448;2022-11-25T12:44:58;12.20;99.90
8979;DHT22;4524;51.364;5.448;2022-11-25T12:47:27;12.20;99.90
8979;DHT22;4524;51.364;5.448;2022-11-25T12:49:56;12.20;99.90
8979;DHT22;4524;51.364;5.448;2022-11-25T12:52:39;12.30;99.90
8979;DHT22;4524;51.364;5.448;2022-11-25T12:55:13;12.30;99.90
8979;DHT22;4524;51.364;5.448;2022-11-25T12:58:07;12.30;99.90
8979;DHT22;4524;51.364;5.448;2022-11-25T13:01:28;12.40;99.90
8979;DHT22;4524;51.364;5.448;2022-11-25T13:04:28;12.40;99.90
8979;DHT22;4524;51.364;5.448;2022-11-25T13:07:21;12.40;99.90
8979;DHT22;4524;51.364;5.448;2022-11-25T13:10:15;12.50;99.90
8979;DHT22;4524;51.364;5.448;2022-11-25T13:12:58;12.50;99.90
8979;DHT22;4524;51.364;5.448;2022-11-25T13:15:29;12.50;99.90
8979;DHT22;4524;51.364;5.448;2022-11-25T13:18:02;12.50;99.90
8979;DHT22;4524;51.364;5.448;2022-11-25T13:20:45;12.50;99.90
8979;DHT22;4524;51.364;5.448;2022-11-25T13:23:29;12.70;99.90
8979;DHT22;4524;51.364;5.448;2022-11-25T13:32:33;12.60;99.90
8979;DHT22;4524;51.364;5.448;2022-11-25T13:35:35;12.60;99.90
8979;DHT22;4524;51.364;5.448;2022-11-25T13:38:36;12.60;99.90
8979;DHT22;4524;51.364;5.448;2022-11-25T13:41:20;12.60;99.90
8979;DHT22;4524;51.364;5.448;2022-11-25T13:43:56;12.70;99.90
8979;DHT22;4524;51.364;5.448;2022-11-25T13:46:39;12.80;99.90
8979;DHT22;4524;51.364;5.448;2022-11-25T13:49:27;12.70;99.90
8979;DHT22;4524;51.364;5.448;2022-11-25T13:51:59;12.60;99.90
8979;DHT22;4524;51.364;5.448;2022-11-25T13:54:34;12.60;99.90
8979;DHT22;4524;51.364;5.448;2022-11-25T13:57:24;12.60;99.90
8979;DHT22;4524;51.364;5.448;2022-11-25T13:59:55;12.60;99.90
8979;DHT22;4524;51.364;5.448;2022-11-25T14:02:45;12.70;99.90
8979;DHT22;4524;51.364;5.448;2022-11-25T14:05:47;12.70;99.90
8979;DHT22;4524;51.364;5.448;2022-11-25T14:08:38;12.70;99.90
8979;DHT22;4524;51.364;5.448;2022-11-25T14:14:43;12.70;99.90
8979;DHT22;4524;51.364;5.448;2022-11-25T14:20:24;12.50;99.90
8979;DHT22;4524;51.364;5.448;2022-11-25T14:23:22;12.50;99.90
8979;DHT22;4524;51.364;5.448;2022-11-25T14:26:02;12.50;99.90
8979;DHT22;4524;51.364;5.448;2022-11-25T14:28:54;12.50;99.90
8979;DHT22;4524;51.364;5.448;2022-11-25T14:31:32;12.50;99.90
8979;DHT22;4524;51.364;5.448;2022-11-25T14:34:09;12.50;99.90
8979;DHT22;4524;51.364;5.448;2022-11-25T14:36:41;12.40;99.90
8979;DHT22;4524;51.364;5.448;2022-11-25T14:39:17;12.40;99.90
8979;DHT22;4524;51.364;5.448;2022-11-25T14:41:51;12.30;99.90
8979;DHT22;4524;51.364;5.448;2022-11-25T14:44:25;12.30;99.90
8979;DHT22;4524;51.364;5.448;2022-11-25T14:46:56;12.30;99.90
8979;DHT22;4524;51.364;5.448;2022-11-25T14:49:43;12.30;99.90
8979;DHT22;4524;51.364;5.448;2022-11-25T14:52:27;12.20;99.90
8979;DHT22;4524;51.364;5.448;2022-11-25T14:54:56;12.20;99.90
8979;DHT22;4524;51.364;5.448;2022-11-25T14:57:28;12.10;99.90
8979;DHT22;4524;51.364;5.448;2022-11-25T15:00:05;12.00;99.90
8979;DHT22;4524;51.364;5.448;2022-11-25T15:02:35;12.00;99.90
8979;DHT22;4524;51.364;5.448;2022-11-25T15:05:16;11.90;1.00
8979;DHT22;4524;51.364;5.448;2022-11-25T15:08:00;11.80;1.00
8979;DHT22;4524;51.364;5.448;2022-11-25T15:10:30;11.70;1.00
8979;DHT22;4524;51.364;5.448;2022-11-25T15:12:59;11.70;1.00
8979;DHT22;4524;51.364;5.448;2022-11-25T15:15:30;11.60;1.00
8979;DHT22;4524;51.364;5.448;2022-11-25T15:18:03;11.70;1.00
8979;DHT22;4524;51.364;5.448;2022-11-25T15:20:32;11.70;1.00
8979;DHT22;4524;51.364;5.448;2022-11-25T15:23:01;11.80;1.00
8979;DHT22;4524;51.364;5.448;2022-11-25T15:25:29;11.80;1.00
8979;DHT22;4524;51.364;5.448;2022-11-25T15:27:57;11.70;1.00
8979;DHT22;4524;51.364;5.448;2022-11-25T15:30:27;11.60;1.00
8979;DHT22;4524;51.364;5.448;2022-11-25T15:32:57;11.50;1.00
8979;DHT22;4524;51.364;5.448;2022-11-25T15:35:26;11.50;1.00
8979;DHT22;4524;51.364;5.448;2022-11-25T15:37:54;11.40;1.00
8979;DHT22;4524;51.364;5.448;2022-11-25T15:40:30;11.30;1.00
8979;DHT22;4524;51.364;5.448;2022-11-25T15:42:59;11.30;1.00
8979;DHT22;4524;51.364;5.448;2022-11-25T15:45:31;11.40;1.00
8979;DHT22;4524;51.364;5.448;2022-11-25T15:48:02;11.40;1.00
8979;DHT22;4524;51.364;5.448;2022-11-25T15:50:31;11.40;1.00
8979;DHT22;4524;51.364;5.448;2022-11-25T15:53:01;11.40;1.00
8979;DHT22;4524;51.364;5.448;2022-11-25T15:55:31;11.50;1.00
8979;DHT22;4524;51.364;5.448;2022-11-25T15:58:03;11.40;1.00
8979;DHT22;4524;51.364;5.448;2022-11-25T16:00:32;11.50;1.00
8979;DHT22;4524;51.364;5.448;2022-11-25T16:03:02;11.50;1.00
8979;DHT22;4524;51.364;5.448;2022-11-25T16:05:34;11.40;1.00
8979;DHT22;4524;51.364;5.448;2022-11-25T16:08:23;11.40;1.00
8979;DHT22;4524;51.364;5.448;2022-11-25T16:10:54;11.30;1.00
8979;DHT22;4524;51.364;5.448;2022-11-25T16:13:33;11.20;1.00
8979;DHT22;4524;51.364;5.448;2022-11-25T16:16:10;11.10;1.00
8979;DHT22;4524;51.364;5.448;2022-11-25T16:18:42;11.00;1.00
8979;DHT22;4524;51.364;5.448;2022-11-25T16:21:13;10.90;1.00
8979;DHT22;4524;51.364;5.448;2022-11-25T16:23:46;10.90;1.00
8979;DHT22;4524;51.364;5.448;2022-11-25T16:26:16;10.80;1.00
8979;DHT22;4524;51.364;5.448;2022-11-25T16:28:52;10.70;1.00
8979;DHT22;4524;51.364;5.448;2022-11-25T16:31:21;10.80;1.00
8979;DHT22;4524;51.364;5.448;2022-11-25T16:33:52;10.80;1.00
8979;DHT22;4524;51.364;5.448;2022-11-25T16:36:20;10.80;1.00
8979;DHT22;4524;51.364;5.448;2022-11-25T16:38:51;10.80;1.00
8979;DHT22;4524;51.364;5.448;2022-11-25T16:41:22;10.80;1.00
8979;DHT22;4524;51.364;5.448;2022-11-25T16:43:50;10.90;1.00
8979;DHT22;4524;51.364;5.448;2022-11-25T16:46:18;10.80;1.00
8979;DHT22;4524;51.364;5.448;2022-11-25T16:48:46;10.90;1.00
8979;DHT22;4524;51.364;5.448;2022-11-25T16:51:17;10.90;1.00
8979;DHT22;4524;51.364;5.448;2022-11-25T16:53:46;10.80;1.00
8979;DHT22;4524;51.364;5.448;2022-11-25T16:56:17;10.80;1.00
8979;DHT22;4524;51.364;5.448;2022-11-25T16:58:46;10.70;1.00
8979;DHT22;4524;51.364;5.448;2022-11-25T17:01:16;10.70;1.00
8979;DHT22;4524;51.364;5.448;2022-11-25T17:03:44;10.80;1.00
8979;DHT22;4524;51.364;5.448;2022-11-25T17:06:13;10.90;1.00